sensor_id;sensor_type;location;lat;lon;timestamp;noise_LAeq;noise_LA_min;noise_LA_max;noise_LA01;noise_LA95
49732;Laerm;43666;51.442;6.778;2023-07-31T00:01:45;37.43;26.91;46.15;;
49732;Laerm;43666;51.442;6.778;2023-07-31T00:04:12;37.35;29.92;48.87;;
49732;Laerm;43666;51.442;6.778;2023-07-31T00:06:38;37.64;28.67;54.92;;
49732;Laerm;43666;51.442;6.778;2023-07-31T00:09:04;37.62;28.67;40.98;;
49732;Laerm;43666;51.442;6.778;2023-07-31T00:11:30;37.72;28.67;57.70;;
49732;Laerm;43666;51.442;6.778;2023-07-31T00:13:55;37.71;30.89;52.57;;
49732;Laerm;43666;51.442;6.778;2023-07-31T00:16:21;38.29;31.68;64.89;;
49732;Laerm;43666;51.442;6.778;2023-07-31T00:18:47;37.83;26.91;42.22;;
49732;Laerm;43666;51.442;6.778;2023-07-31T00:21:13;37.94;29.92;41.38;;
49732;Laerm;43666;51.442;6.778;2023-07-31T00:23:38;37.93;29.92;40.80;;
49732;Laerm;43666;51.442;6.778;2023-07-31T00:26:04;37.98;31.68;41.46;;
49732;Laerm;43666;51.442;6.778;2023-07-31T00:28:30;37.92;30.89;54.45;;
49732;Laerm;43666;51.442;6.778;2023-07-31T00:30:55;38.06;26.91;47.93;;
49732;Laerm;43666;51.442;6.778;2023-07-31T00:33:21;38.08;29.92;49.89;;
49732;Laerm;43666;51.442;6.778;2023-07-31T00:35:48;38.23;31.68;41.22;;
49732;Laerm;43666;51.442;6.778;2023-07-31T00:38:13;38.15;26.91;42.71;;
49732;Laerm;43666;51.442;6.778;2023-07-31T00:40:42;38.03;30.89;44.47;;
49732;Laerm;43666;51.442;6.778;2023-07-31T00:43:10;37.82;28.67;40.98;;
49732;Laerm;43666;51.442;6.778;2023-07-31T00:45:36;37.63;29.92;40.80;;
49732;Laerm;43666;51.442;6.778;2023-07-31T00:48:02;38.59;30.89;62.40;;
49732;Laerm;43666;51.442;6.778;2023-07-31T00:50:28;37.70;28.67;46.78;;
49732;Laerm;43666;51.442;6.778;2023-07-31T00:52:54;38.47;30.89;66.65;;
49732;Laerm;43666;51.442;6.778;2023-07-31T00:55:20;37.88;30.89;42.76;;
49732;Laerm;43666;51.442;6.778;2023-07-31T00:57:47;37.87;30.89;56.23;;
49732;Laerm;43666;51.442;6.778;2023-07-31T01:00:14;37.69;29.92;41.06;;
49732;Laerm;43666;51.442;6.778;2023-07-31T01:02:40;37.74;28.67;41.75;;
49732;Laerm;43666;51.442;6.778;2023-07-31T01:05:06;37.82;28.67;42.03;;
49732;Laerm;43666;51.442;6.778;2023-07-31T01:07:53;38.84;29.92;68.33;;
49732;Laerm;43666;51.442;6.778;2023-07-31T01:10:23;37.97;30.89;49.04;;
49732;Laerm;43666;51.442;6.778;2023-07-31T01:12:53;37.76;29.92;41.30;;
49732;Laerm;43666;51.442;6.778;2023-07-31T01:15:22;37.83;31.68;41.53;;
49732;Laerm;43666;51.442;6.778;2023-07-31T01:17:48;37.70;30.89;40.89;;
49732;Laerm;43666;51.442;6.778;2023-07-31T01:20:17;37.76;30.54;41.06;;
49732;Laerm;43666;51.442;6.778;2023-07-31T01:27:39;37.88;30.89;41.53;;
49732;Laerm;43666;51.442;6.778;2023-07-31T01:30:15;37.99;31.68;41.38;;
49732;Laerm;43666;51.442;6.778;2023-07-31T01:32:45;37.76;28.67;42.03;;
49732;Laerm;43666;51.442;6.778;2023-07-31T01:35:12;37.66;29.92;41.14;;
49732;Laerm;43666;51.442;6.778;2023-07-31T01:37:39;37.57;29.92;40.98;;
49732;Laerm;43666;51.442;6.778;2023-07-31T01:40:05;37.98;30.89;41.75;;
49732;Laerm;43666;51.442;6.778;2023-07-31T01:42:31;38.16;32.35;41.61;;
49732;Laerm;43666;51.442;6.778;2023-07-31T01:44:57;38.38;32.35;42.03;;
49732;Laerm;43666;51.442;6.778;2023-07-31T01:47:23;38.30;32.35;41.46;;
49732;Laerm;43666;51.442;6.778;2023-07-31T01:49:49;38.83;32.93;42.03;;
49732;Laerm;43666;51.442;6.778;2023-07-31T01:52:15;38.41;33.44;41.06;;
49732;Laerm;43666;51.442;6.778;2023-07-31T01:54:40;38.48;33.90;41.46;;
49732;Laerm;43666;51.442;6.778;2023-07-31T01:57:07;38.45;32.35;41.33;;
49732;Laerm;43666;51.442;6.778;2023-07-31T01:59:33;38.54;33.44;41.61;;
49732;Laerm;43666;51.442;6.778;2023-07-31T02:01:58;38.67;33.44;41.82;;
49732;Laerm;43666;51.442;6.778;2023-07-31T02:04:24;38.65;32.93;41.46;;
49732;Laerm;43666;51.442;6.778;2023-07-31T02:06:49;38.71;33.44;41.61;;
49732;Laerm;43666;51.442;6.778;2023-07-31T02:09:15;38.69;33.90;41.75;;
49732;Laerm;43666;51.442;6.778;2023-07-31T02:11:41;38.78;33.44;41.61;;
49732;Laerm;43666;51.442;6.778;2023-07-31T02:14:07;38.64;32.93;41.38;;
49732;Laerm;43666;51.442;6.778;2023-07-31T02:16:33;38.78;33.90;41.61;;
49732;Laerm;43666;51.442;6.778;2023-07-31T02:18:58;38.65;32.93;41.68;;
49732;Laerm;43666;51.442;6.778;2023-07-31T02:21:24;38.71;33.44;41.46;;
49732;Laerm;43666;51.442;6.778;2023-07-31T02:23:50;38.87;33.44;41.82;;
49732;Laerm;43666;51.442;6.778;2023-07-31T02:26:15;38.92;32.35;42.03;;
49732;Laerm;43666;51.442;6.778;2023-07-31T02:28:42;38.79;33.90;41.68;;
49732;Laerm;43666;51.442;6.778;2023-07-31T02:31:08;38.64;33.90;41.46;;
49732;Laerm;43666;51.442;6.778;2023-07-31T02:33:34;38.71;32.35;41.46;;
49732;Laerm;43666;51.442;6.778;2023-07-31T02:36:00;38.70;34.31;41.38;;
49732;Laerm;43666;51.442;6.778;2023-07-31T02:38:25;38.66;33.44;41.38;;
49732;Laerm;43666;51.442;6.778;2023-07-31T02:40:51;38.86;34.69;41.61;;
49732;Laerm;43666;51.442;6.778;2023-07-31T02:43:17;38.63;32.93;42.16;;
49732;Laerm;43666;51.442;6.778;2023-07-31T02:45:43;38.77;34.69;41.68;;
49732;Laerm;43666;51.442;6.778;2023-07-31T02:48:08;39.15;34.31;41.96;;
49732;Laerm;43666;51.442;6.778;2023-07-31T02:50:34;38.93;33.90;41.82;;
49732;Laerm;43666;51.442;6.778;2023-07-31T02:53:00;38.96;33.44;41.82;;
49732;Laerm;43666;51.442;6.778;2023-07-31T02:55:26;39.15;34.31;41.96;;
49732;Laerm;43666;51.442;6.778;2023-07-31T02:57:52;39.27;32.93;41.89;;
49732;Laerm;43666;51.442;6.778;2023-07-31T03:00:18;39.43;34.69;43.29;;
49732;Laerm;43666;51.442;6.778;2023-07-31T03:02:45;39.48;35.36;43.19;;
49732;Laerm;43666;51.442;6.778;2023-07-31T03:05:11;39.34;35.04;41.89;;
49732;Laerm;43666;51.442;6.778;2023-07-31T03:07:36;39.41;33.90;42.03;;
49732;Laerm;43666;51.442;6.778;2023-07-31T03:10:02;39.31;34.69;42.41;;
49732;Laerm;43666;51.442;6.778;2023-07-31T03:12:28;39.28;33.90;42.13;;
49732;Laerm;43666;51.442;6.778;2023-07-31T03:14:54;39.28;34.31;41.82;;
49732;Laerm;43666;51.442;6.778;2023-07-31T03:17:20;39.19;32.93;42.65;;
49732;Laerm;43666;51.442;6.778;2023-07-31T03:19:46;39.12;34.69;42.65;;
49732;Laerm;43666;51.442;6.778;2023-07-31T03:22:11;39.30;33.44;42.35;;
49732;Laerm;43666;51.442;6.778;2023-07-31T03:24:37;39.19;34.69;42.09;;
49732;Laerm;43666;51.442;6.778;2023-07-31T03:27:03;39.15;33.55;42.29;;
49732;Laerm;43666;51.442;6.778;2023-07-31T03:29:28;39.22;33.90;42.03;;
49732;Laerm;43666;51.442;6.778;2023-07-31T03:31:54;39.20;34.31;43.04;;
49732;Laerm;43666;51.442;6.778;2023-07-31T03:34:20;38.97;32.93;41.68;;
49732;Laerm;43666;51.442;6.778;2023-07-31T03:36:47;38.96;33.44;41.61;;
49732;Laerm;43666;51.442;6.778;2023-07-31T03:39:13;38.87;33.90;42.47;;
49732;Laerm;43666;51.442;6.778;2023-07-31T03:41:39;38.73;34.31;42.16;;
49732;Laerm;43666;51.442;6.778;2023-07-31T03:44:05;39.00;34.31;42.41;;
49732;Laerm;43666;51.442;6.778;2023-07-31T03:46:31;38.98;33.55;41.53;;
49732;Laerm;43666;51.442;6.778;2023-07-31T03:48:57;39.12;33.44;42.16;;
49732;Laerm;43666;51.442;6.778;2023-07-31T03:51:23;39.12;35.04;41.82;;
49732;Laerm;43666;51.442;6.778;2023-07-31T03:53:48;39.09;34.31;41.89;;
49732;Laerm;43666;51.442;6.778;2023-07-31T03:56:14;38.97;33.90;41.75;;
49732;Laerm;43666;51.442;6.778;2023-07-31T03:58:40;38.93;33.90;41.96;;
49732;Laerm;43666;51.442;6.778;2023-07-31T04:01:06;38.74;33.44;42.29;;
49732;Laerm;43666;51.442;6.778;2023-07-31T04:03:31;39.05;33.44;41.82;;
49732;Laerm;43666;51.442;6.778;2023-07-31T04:05:57;39.42;34.31;42.82;;
49732;Laerm;43666;51.442;6.778;2023-07-31T04:08:24;39.46;34.31;42.58;;
49732;Laerm;43666;51.442;6.778;2023-07-31T04:10:50;39.40;33.90;42.41;;
49732;Laerm;43666;51.442;6.778;2023-07-31T04:13:16;39.15;33.90;41.75;;
49732;Laerm;43666;51.442;6.778;2023-07-31T04:15:42;39.11;34.31;42.03;;
49732;Laerm;43666;51.442;6.778;2023-07-31T04:18:08;39.28;33.90;41.89;;
49732;Laerm;43666;51.442;6.778;2023-07-31T04:20:33;39.26;32.35;42.09;;
49732;Laerm;43666;51.442;6.778;2023-07-31T04:22:59;39.38;34.69;42.41;;
49732;Laerm;43666;51.442;6.778;2023-07-31T04:25:26;39.36;33.90;42.03;;
49732;Laerm;43666;51.442;6.778;2023-07-31T04:27:52;39.23;33.44;42.09;;
49732;Laerm;43666;51.442;6.778;2023-07-31T04:30:17;39.22;34.69;41.68;;
49732;Laerm;43666;51.442;6.778;2023-07-31T04:32:43;39.19;34.69;41.75;;
49732;Laerm;43666;51.442;6.778;2023-07-31T04:35:09;39.31;34.31;42.22;;
49732;Laerm;43666;51.442;6.778;2023-07-31T04:37:34;39.11;34.31;42.03;;
49732;Laerm;43666;51.442;6.778;2023-07-31T04:40:00;39.15;34.69;42.03;;
49732;Laerm;43666;51.442;6.778;2023-07-31T04:42:26;39.15;33.90;41.75;;
49732;Laerm;43666;51.442;6.778;2023-07-31T04:44:52;39.22;35.36;41.96;;
49732;Laerm;43666;51.442;6.778;2023-07-31T04:47:18;38.91;33.90;42.03;;
49732;Laerm;43666;51.442;6.778;2023-07-31T04:49:44;38.84;33.97;41.75;;
49732;Laerm;43666;51.442;6.778;2023-07-31T04:52:10;39.10;35.04;41.96;;
49732;Laerm;43666;51.442;6.778;2023-07-31T04:54:35;38.97;32.93;41.75;;
49732;Laerm;43666;51.442;6.778;2023-07-31T04:57:01;39.11;34.31;41.82;;
49732;Laerm;43666;51.442;6.778;2023-07-31T04:59:27;39.11;35.04;42.16;;
49732;Laerm;43666;51.442;6.778;2023-07-31T05:01:53;39.18;33.90;42.09;;
49732;Laerm;43666;51.442;6.778;2023-07-31T05:04:19;39.24;35.01;41.89;;
49732;Laerm;43666;51.442;6.778;2023-07-31T05:06:45;39.26;33.90;41.89;;
49732;Laerm;43666;51.442;6.778;2023-07-31T05:09:11;39.32;32.93;43.09;;
49732;Laerm;43666;51.442;6.778;2023-07-31T05:11:37;39.35;34.69;42.59;;
49732;Laerm;43666;51.442;6.778;2023-07-31T05:14:03;39.33;32.93;42.53;;
49732;Laerm;43666;51.442;6.778;2023-07-31T05:16:29;39.38;34.69;42.16;;
49732;Laerm;43666;51.442;6.778;2023-07-31T05:18:54;39.36;35.36;42.09;;
49732;Laerm;43666;51.442;6.778;2023-07-31T05:21:20;39.53;34.69;42.29;;
49732;Laerm;43666;51.442;6.778;2023-07-31T05:23:46;39.50;35.04;42.41;;
49732;Laerm;43666;51.442;6.778;2023-07-31T05:26:13;38.99;34.34;41.68;;
49732;Laerm;43666;51.442;6.778;2023-07-31T05:28:39;38.96;33.90;41.53;;
49732;Laerm;43666;51.442;6.778;2023-07-31T05:31:05;39.01;35.04;41.53;;
49732;Laerm;43666;51.442;6.778;2023-07-31T05:33:31;39.22;34.69;42.59;;
49732;Laerm;43666;51.442;6.778;2023-07-31T05:35:57;39.09;33.90;42.29;;
49732;Laerm;43666;51.442;6.778;2023-07-31T05:38:22;39.12;33.97;42.03;;
49732;Laerm;43666;51.442;6.778;2023-07-31T05:40:49;39.01;33.90;41.96;;
49732;Laerm;43666;51.442;6.778;2023-07-31T05:43:15;39.09;33.44;42.09;;
49732;Laerm;43666;51.442;6.778;2023-07-31T05:45:43;39.29;35.04;42.09;;
49732;Laerm;43666;51.442;6.778;2023-07-31T05:48:09;39.31;34.31;42.03;;
49732;Laerm;43666;51.442;6.778;2023-07-31T05:50:36;39.22;32.93;42.03;;
49732;Laerm;43666;51.442;6.778;2023-07-31T05:53:04;39.27;32.35;42.03;;
49732;Laerm;43666;51.442;6.778;2023-07-31T05:55:30;39.09;33.90;42.09;;
49732;Laerm;43666;51.442;6.778;2023-07-31T05:57:56;39.10;33.44;42.09;;
49732;Laerm;43666;51.442;6.778;2023-07-31T06:00:21;38.84;33.90;41.89;;
49732;Laerm;43666;51.442;6.778;2023-07-31T06:02:48;38.97;34.31;41.82;;
49732;Laerm;43666;51.442;6.778;2023-07-31T06:05:13;38.97;33.44;41.96;;
49732;Laerm;43666;51.442;6.778;2023-07-31T06:07:40;39.05;35.04;41.96;;
49732;Laerm;43666;51.442;6.778;2023-07-31T06:10:06;38.95;33.44;41.68;;
49732;Laerm;43666;51.442;6.778;2023-07-31T06:12:35;39.12;34.69;42.03;;
49732;Laerm;43666;51.442;6.778;2023-07-31T06:15:01;39.06;33.44;42.29;;
49732;Laerm;43666;51.442;6.778;2023-07-31T06:17:27;38.94;33.90;41.96;;
49732;Laerm;43666;51.442;6.778;2023-07-31T06:19:53;38.90;34.31;42.22;;
49732;Laerm;43666;51.442;6.778;2023-07-31T06:22:19;38.87;33.44;42.53;;
49732;Laerm;43666;51.442;6.778;2023-07-31T06:24:46;38.77;32.93;41.82;;
49732;Laerm;43666;51.442;6.778;2023-07-31T06:27:11;38.59;33.44;41.55;;
49732;Laerm;43666;51.442;6.778;2023-07-31T06:29:37;38.36;32.35;41.30;;
49732;Laerm;43666;51.442;6.778;2023-07-31T06:32:03;38.17;32.35;42.42;;
49732;Laerm;43666;51.442;6.778;2023-07-31T06:34:29;38.10;32.35;41.14;;
49732;Laerm;43666;51.442;6.778;2023-07-31T06:36:56;38.28;29.92;60.15;;
49732;Laerm;43666;51.442;6.778;2023-07-31T06:39:22;38.12;30.89;41.30;;
49732;Laerm;43666;51.442;6.778;2023-07-31T06:41:47;38.38;31.68;41.38;;
49732;Laerm;43666;51.442;6.778;2023-07-31T06:44:13;38.39;32.35;41.75;;
49732;Laerm;43666;51.442;6.778;2023-07-31T06:46:40;38.30;31.68;41.38;;
49732;Laerm;43666;51.442;6.778;2023-07-31T06:49:06;38.46;32.35;41.68;;
49732;Laerm;43666;51.442;6.778;2023-07-31T06:51:31;38.41;29.92;41.38;;
49732;Laerm;43666;51.442;6.778;2023-07-31T06:53:57;38.44;32.35;41.38;;
49732;Laerm;43666;51.442;6.778;2023-07-31T06:56:23;38.61;33.44;41.68;;
49732;Laerm;43666;51.442;6.778;2023-07-31T06:58:50;38.53;32.35;41.75;;
49732;Laerm;43666;51.442;6.778;2023-07-31T07:01:15;38.40;33.44;41.38;;
49732;Laerm;43666;51.442;6.778;2023-07-31T07:03:41;38.29;29.92;41.89;;
49732;Laerm;43666;51.442;6.778;2023-07-31T07:06:07;38.30;30.89;41.89;;
49732;Laerm;43666;51.442;6.778;2023-07-31T07:08:32;38.37;30.89;41.30;;
49732;Laerm;43666;51.442;6.778;2023-07-31T07:10:58;38.27;31.68;44.47;;
49732;Laerm;43666;51.442;6.778;2023-07-31T07:13:24;38.25;31.68;42.16;;
49732;Laerm;43666;51.442;6.778;2023-07-31T07:15:50;38.12;32.35;41.46;;
49732;Laerm;43666;51.442;6.778;2023-07-31T07:18:17;38.13;30.89;49.64;;
49732;Laerm;43666;51.442;6.778;2023-07-31T07:20:47;38.08;29.92;42.53;;
49732;Laerm;43666;51.442;6.778;2023-07-31T07:23:13;38.18;31.68;41.94;;
49732;Laerm;43666;51.442;6.778;2023-07-31T07:25:39;37.82;30.89;40.98;;
49732;Laerm;43666;51.442;6.778;2023-07-31T07:28:04;37.74;31.68;41.30;;
49732;Laerm;43666;51.442;6.778;2023-07-31T07:30:30;37.80;30.89;41.06;;
49732;Laerm;43666;51.442;6.778;2023-07-31T07:32:55;37.78;29.92;42.35;;
49732;Laerm;43666;51.442;6.778;2023-07-31T07:35:21;37.72;29.92;41.14;;
49732;Laerm;43666;51.442;6.778;2023-07-31T07:37:48;37.76;29.92;40.80;;
49732;Laerm;43666;51.442;6.778;2023-07-31T07:40:15;37.70;29.92;41.30;;
49732;Laerm;43666;51.442;6.778;2023-07-31T07:42:41;37.89;30.89;42.09;;
49732;Laerm;43666;51.442;6.778;2023-07-31T07:45:07;37.75;30.89;40.98;;
49732;Laerm;43666;51.442;6.778;2023-07-31T07:47:33;37.86;31.68;41.82;;
49732;Laerm;43666;51.442;6.778;2023-07-31T07:49:59;37.82;29.92;43.90;;
49732;Laerm;43666;51.442;6.778;2023-07-31T07:52:25;37.59;30.89;43.39;;
49732;Laerm;43666;51.442;6.778;2023-07-31T07:54:51;37.75;30.89;45.14;;
49732;Laerm;43666;51.442;6.778;2023-07-31T07:57:16;38.40;28.67;42.35;;
49732;Laerm;43666;51.442;6.778;2023-07-31T07:59:42;38.43;30.89;42.47;;
49732;Laerm;43666;51.442;6.778;2023-07-31T08:02:08;38.11;31.68;53.23;;
49732;Laerm;43666;51.442;6.778;2023-07-31T08:04:34;38.25;30.89;41.61;;
49732;Laerm;43666;51.442;6.778;2023-07-31T08:07:00;38.09;32.35;41.46;;
49732;Laerm;43666;51.442;6.778;2023-07-31T08:09:26;37.36;28.67;40.62;;
49732;Laerm;43666;51.442;6.778;2023-07-31T08:11:51;37.31;30.89;41.46;;
49732;Laerm;43666;51.442;6.778;2023-07-31T08:14:17;37.81;26.91;61.71;;
49732;Laerm;43666;51.442;6.778;2023-07-31T08:16:43;37.47;29.92;41.30;;
49732;Laerm;43666;51.442;6.778;2023-07-31T08:19:09;37.77;26.91;41.06;;
49732;Laerm;43666;51.442;6.778;2023-07-31T08:21:35;38.11;29.92;63.63;;
49732;Laerm;43666;51.442;6.778;2023-07-31T08:24:01;37.50;28.67;40.89;;
49732;Laerm;43666;51.442;6.778;2023-07-31T08:26:26;37.46;23.90;52.28;;
49732;Laerm;43666;51.442;6.778;2023-07-31T08:28:52;37.76;29.92;41.14;;
49732;Laerm;43666;51.442;6.778;2023-07-31T08:31:18;38.03;30.89;43.29;;
49732;Laerm;43666;51.442;6.778;2023-07-31T08:33:45;38.23;31.68;42.09;;
49732;Laerm;43666;51.442;6.778;2023-07-31T08:36:10;38.09;31.68;41.30;;
49732;Laerm;43666;51.442;6.778;2023-07-31T08:38:36;37.78;26.91;41.30;;
49732;Laerm;43666;51.442;6.778;2023-07-31T08:41:04;37.88;30.89;48.31;;
49732;Laerm;43666;51.442;6.778;2023-07-31T08:43:30;37.97;29.92;40.89;;
49732;Laerm;43666;51.442;6.778;2023-07-31T08:45:56;38.12;29.92;43.19;;
49732;Laerm;43666;51.442;6.778;2023-07-31T08:48:22;38.10;30.89;41.89;;
49732;Laerm;43666;51.442;6.778;2023-07-31T08:50:48;37.95;30.89;41.38;;
49732;Laerm;43666;51.442;6.778;2023-07-31T08:53:14;38.27;31.68;42.16;;
49732;Laerm;43666;51.442;6.778;2023-07-31T08:55:40;38.29;32.35;41.75;;
49732;Laerm;43666;51.442;6.778;2023-07-31T08:58:06;38.26;28.67;41.30;;
49732;Laerm;43666;51.442;6.778;2023-07-31T09:00:32;38.34;32.35;41.46;;
49732;Laerm;43666;51.442;6.778;2023-07-31T09:03:03;38.51;32.35;41.82;;
49732;Laerm;43666;51.442;6.778;2023-07-31T09:05:29;38.36;30.89;41.53;;
49732;Laerm;43666;51.442;6.778;2023-07-31T09:07:56;38.31;32.93;41.75;;
49732;Laerm;43666;51.442;6.778;2023-07-31T09:10:23;38.25;29.92;41.61;;
49732;Laerm;43666;51.442;6.778;2023-07-31T09:12:48;38.15;29.92;41.30;;
49732;Laerm;43666;51.442;6.778;2023-07-31T09:15:14;38.31;31.68;54.89;;
49732;Laerm;43666;51.442;6.778;2023-07-31T09:17:40;37.97;28.67;52.37;;
49732;Laerm;43666;51.442;6.778;2023-07-31T09:20:19;37.83;29.92;43.14;;
49732;Laerm;43666;51.442;6.778;2023-07-31T09:22:45;37.63;28.67;41.82;;
49732;Laerm;43666;51.442;6.778;2023-07-31T09:25:20;39.26;29.92;70.87;;
49732;Laerm;43666;51.442;6.778;2023-07-31T09:27:53;37.75;28.67;46.33;;
49732;Laerm;43666;51.442;6.778;2023-07-31T09:30:20;37.59;23.90;41.06;;
49732;Laerm;43666;51.442;6.778;2023-07-31T09:32:46;37.66;28.67;41.14;;
49732;Laerm;43666;51.442;6.778;2023-07-31T09:37:41;38.02;30.89;41.46;;
49732;Laerm;43666;51.442;6.778;2023-07-31T09:40:07;38.54;30.89;41.46;;
49732;Laerm;43666;51.442;6.778;2023-07-31T09:42:33;38.27;32.35;41.46;;
49732;Laerm;43666;51.442;6.778;2023-07-31T09:45:09;38.37;29.92;41.75;;
49732;Laerm;43666;51.442;6.778;2023-07-31T09:47:36;38.53;31.68;41.55;;
49732;Laerm;43666;51.442;6.778;2023-07-31T09:50:01;38.14;31.68;41.61;;
49732;Laerm;43666;51.442;6.778;2023-07-31T09:52:32;41.36;30.89;74.98;;
49732;Laerm;43666;51.442;6.778;2023-07-31T09:54:57;37.80;30.89;40.80;;
49732;Laerm;43666;51.442;6.778;2023-07-31T09:57:23;37.57;29.57;40.80;;
49732;Laerm;43666;51.442;6.778;2023-07-31T09:59:51;37.75;29.92;41.30;;
49732;Laerm;43666;51.442;6.778;2023-07-31T10:02:20;37.99;29.92;41.53;;
49732;Laerm;43666;51.442;6.778;2023-07-31T10:04:46;38.03;28.67;41.22;;
49732;Laerm;43666;51.442;6.778;2023-07-31T10:07:15;38.09;29.92;41.53;;
49732;Laerm;43666;51.442;6.778;2023-07-31T10:09:43;38.05;30.89;42.59;;
49732;Laerm;43666;51.442;6.778;2023-07-31T10:12:10;38.35;31.68;41.38;;
49732;Laerm;43666;51.442;6.778;2023-07-31T10:14:38;38.19;29.92;41.96;;
49732;Laerm;43666;51.442;6.778;2023-07-31T10:17:05;38.09;31.68;41.68;;
49732;Laerm;43666;51.442;6.778;2023-07-31T10:19:31;38.19;30.89;41.30;;
49732;Laerm;43666;51.442;6.778;2023-07-31T10:21:57;38.17;30.89;41.53;;
49732;Laerm;43666;51.442;6.778;2023-07-31T10:24:24;37.90;31.68;41.75;;
49732;Laerm;43666;51.442;6.778;2023-07-31T10:26:50;37.91;31.68;42.35;;
49732;Laerm;43666;51.442;6.778;2023-07-31T10:29:17;37.96;31.68;41.38;;
49732;Laerm;43666;51.442;6.778;2023-07-31T10:31:44;38.30;32.35;43.14;;
49732;Laerm;43666;51.442;6.778;2023-07-31T10:34:11;37.81;30.89;41.53;;
49732;Laerm;43666;51.442;6.778;2023-07-31T10:36:38;37.75;26.91;41.30;;
49732;Laerm;43666;51.442;6.778;2023-07-31T10:39:04;38.10;31.68;41.89;;
49732;Laerm;43666;51.442;6.778;2023-07-31T10:41:44;38.36;31.68;41.30;;
49732;Laerm;43666;51.442;6.778;2023-07-31T10:44:13;38.33;32.93;41.38;;
49732;Laerm;43666;51.442;6.778;2023-07-31T10:46:41;38.52;33.44;41.38;;
49732;Laerm;43666;51.442;6.778;2023-07-31T10:49:07;38.35;30.89;41.30;;
49732;Laerm;43666;51.442;6.778;2023-07-31T10:51:33;38.26;32.93;41.22;;
49732;Laerm;43666;51.442;6.778;2023-07-31T10:54:10;38.28;32.93;41.30;;
49732;Laerm;43666;51.442;6.778;2023-07-31T10:56:39;38.34;32.93;41.30;;
49732;Laerm;43666;51.442;6.778;2023-07-31T10:59:05;38.47;32.93;41.53;;
49732;Laerm;43666;51.442;6.778;2023-07-31T11:04:30;38.47;31.68;41.53;;
49732;Laerm;43666;51.442;6.778;2023-07-31T11:06:58;38.67;32.35;41.46;;
49732;Laerm;43666;51.442;6.778;2023-07-31T11:09:27;38.69;33.90;41.46;;
49732;Laerm;43666;51.442;6.778;2023-07-31T11:11:55;38.74;33.44;41.68;;
49732;Laerm;43666;51.442;6.778;2023-07-31T11:14:21;38.76;33.90;41.68;;
49732;Laerm;43666;51.442;6.778;2023-07-31T11:16:49;38.67;33.90;41.46;;
49732;Laerm;43666;51.442;6.778;2023-07-31T11:19:20;38.84;33.90;41.30;;
49732;Laerm;43666;51.442;6.778;2023-07-31T11:21:46;38.85;34.69;41.82;;
49732;Laerm;43666;51.442;6.778;2023-07-31T11:24:13;38.80;33.90;41.82;;
49732;Laerm;43666;51.442;6.778;2023-07-31T11:26:39;38.79;33.90;41.53;;
49732;Laerm;43666;51.442;6.778;2023-07-31T11:29:13;38.93;32.93;41.89;;
49732;Laerm;43666;51.442;6.778;2023-07-31T11:31:43;38.85;34.31;41.89;;
49732;Laerm;43666;51.442;6.778;2023-07-31T11:34:09;38.88;33.44;41.82;;
49732;Laerm;43666;51.442;6.778;2023-07-31T11:36:34;38.79;33.90;42.09;;
49732;Laerm;43666;51.442;6.778;2023-07-31T11:39:10;38.98;34.69;41.61;;
49732;Laerm;43666;51.442;6.778;2023-07-31T11:41:40;38.91;32.93;41.53;;
49732;Laerm;43666;51.442;6.778;2023-07-31T11:44:07;38.93;34.69;41.75;;
49732;Laerm;43666;51.442;6.778;2023-07-31T11:46:32;39.19;35.01;41.68;;
49732;Laerm;43666;51.442;6.778;2023-07-31T11:49:01;38.94;34.31;41.55;;
49732;Laerm;43666;51.442;6.778;2023-07-31T11:51:27;39.06;34.34;41.96;;
49732;Laerm;43666;51.442;6.778;2023-07-31T11:53:56;39.14;33.90;42.09;;
49732;Laerm;43666;51.442;6.778;2023-07-31T11:56:23;38.93;33.44;41.68;;
49732;Laerm;43666;51.442;6.778;2023-07-31T11:58:53;38.77;32.93;41.68;;
49732;Laerm;43666;51.442;6.778;2023-07-31T12:01:20;38.69;33.90;41.53;;
49732;Laerm;43666;51.442;6.778;2023-07-31T12:03:47;38.61;33.44;41.75;;
49732;Laerm;43666;51.442;6.778;2023-07-31T12:06:13;39.69;33.90;43.29;;
49732;Laerm;43666;51.442;6.778;2023-07-31T12:08:39;39.74;32.35;43.14;;
49732;Laerm;43666;51.442;6.778;2023-07-31T12:11:09;38.19;33.44;41.61;;
49732;Laerm;43666;51.442;6.778;2023-07-31T12:13:35;38.16;31.68;41.89;;
49732;Laerm;43666;51.442;6.778;2023-07-31T12:16:01;38.14;31.68;41.75;;
49732;Laerm;43666;51.442;6.778;2023-07-31T12:18:29;38.28;30.89;42.06;;
49732;Laerm;43666;51.442;6.778;2023-07-31T12:20:57;38.64;33.90;41.61;;
49732;Laerm;43666;51.442;6.778;2023-07-31T12:23:28;38.74;33.90;41.75;;
49732;Laerm;43666;51.442;6.778;2023-07-31T12:26:04;38.87;33.44;41.75;;
49732;Laerm;43666;51.442;6.778;2023-07-31T12:28:30;38.92;32.35;41.89;;
49732;Laerm;43666;51.442;6.778;2023-07-31T12:30:56;39.01;33.44;41.89;;
49732;Laerm;43666;51.442;6.778;2023-07-31T12:33:22;38.98;34.69;41.46;;
49732;Laerm;43666;51.442;6.778;2023-07-31T12:35:48;39.20;35.04;41.96;;
49732;Laerm;43666;51.442;6.778;2023-07-31T12:38:14;39.21;35.04;42.16;;
49732;Laerm;43666;51.442;6.778;2023-07-31T12:40:41;39.37;33.90;41.96;;
49732;Laerm;43666;51.442;6.778;2023-07-31T12:43:07;39.33;33.44;42.03;;
49732;Laerm;43666;51.442;6.778;2023-07-31T12:45:33;39.40;33.44;42.13;;
49732;Laerm;43666;51.442;6.778;2023-07-31T12:47:59;39.32;34.69;43.44;;
49732;Laerm;43666;51.442;6.778;2023-07-31T12:50:25;39.26;35.04;42.16;;
49732;Laerm;43666;51.442;6.778;2023-07-31T12:52:52;39.28;34.69;42.03;;
49732;Laerm;43666;51.442;6.778;2023-07-31T12:55:18;39.16;33.44;41.75;;
49732;Laerm;43666;51.442;6.778;2023-07-31T12:57:44;39.07;32.93;41.82;;
49732;Laerm;43666;51.442;6.778;2023-07-31T13:00:11;39.22;34.69;41.82;;
49732;Laerm;43666;51.442;6.778;2023-07-31T13:02:38;39.15;32.93;43.09;;
49732;Laerm;43666;51.442;6.778;2023-07-31T13:05:04;39.15;34.31;42.03;;
49732;Laerm;43666;51.442;6.778;2023-07-31T13:07:31;38.96;33.44;42.03;;
49732;Laerm;43666;51.442;6.778;2023-07-31T13:09:56;39.00;34.69;41.96;;
49732;Laerm;43666;51.442;6.778;2023-07-31T13:12:22;39.10;33.44;42.16;;
49732;Laerm;43666;51.442;6.778;2023-07-31T13:14:47;39.25;33.44;42.47;;
49732;Laerm;43666;51.442;6.778;2023-07-31T13:17:14;39.27;35.04;42.09;;
49732;Laerm;43666;51.442;6.778;2023-07-31T13:19:40;39.27;34.31;42.22;;
49732;Laerm;43666;51.442;6.778;2023-07-31T13:22:06;39.15;33.44;42.47;;
49732;Laerm;43666;51.442;6.778;2023-07-31T13:24:31;39.32;34.31;42.53;;
49732;Laerm;43666;51.442;6.778;2023-07-31T13:26:57;39.27;35.04;42.47;;
49732;Laerm;43666;51.442;6.778;2023-07-31T13:29:25;39.37;35.04;42.41;;
49732;Laerm;43666;51.442;6.778;2023-07-31T13:31:51;39.20;33.44;41.68;;
49732;Laerm;43666;51.442;6.778;2023-07-31T13:34:17;39.21;31.68;41.75;;
49732;Laerm;43666;51.442;6.778;2023-07-31T13:36:42;39.57;34.69;42.09;;
49732;Laerm;43666;51.442;6.778;2023-07-31T13:39:09;39.54;35.04;42.59;;
49732;Laerm;43666;51.442;6.778;2023-07-31T13:41:35;39.44;33.90;42.09;;
49732;Laerm;43666;51.442;6.778;2023-07-31T13:44:00;39.54;33.44;42.22;;
49732;Laerm;43666;51.442;6.778;2023-07-31T13:46:26;39.70;33.90;42.59;;
49732;Laerm;43666;51.442;6.778;2023-07-31T13:48:52;39.69;34.69;42.47;;
49732;Laerm;43666;51.442;6.778;2023-07-31T13:51:21;39.54;35.04;42.82;;